Time;durP1;ratioP1;P1;durP2;ratioP2;P2;SDS_P1;SDS_P2;PMS_P1;PMS_P2;Temp;Humidity;BMP_temperature;BMP_pressure;BME280_temperature;BME280_humidity;BME280_pressure;Samples;Min_cycle;Max_cycle;Signal;HPM_P1;HPM_P2
2021/01/11 00:02:22;;;;;;;44.80;28.90;;;3.90;99.90;;;;;;4973597;28;20209;-66
2021/01/11 00:04:48;;;;;;;40.37;27.87;;;3.90;99.90;;;;;;4968492;28;20233;-67
2021/01/11 00:07:15;;;;;;;44.87;28.43;;;3.90;99.90;;;;;;4967229;28;20213;-67
2021/01/11 00:09:42;;;;;;;45.00;29.10;;;3.90;99.90;;;;;;4970172;28;20214;-66
2021/01/11 00:12:10;;;;;;;44.90;29.17;;;3.90;99.90;;;;;;4972265;28;20202;-65
2021/01/11 00:14:36;;;;;;;46.13;29.10;;;3.90;99.90;;;;;;4972321;28;20206;-66
2021/01/11 00:17:03;;;;;;;44.53;29.20;;;3.90;99.90;;;;;;4971326;28;20218;-65
2021/01/11 00:19:29;;;;;;;46.90;28.70;;;3.90;99.90;;;;;;4969018;28;20260;-67
2021/01/11 00:21:56;;;;;;;44.43;29.80;;;3.90;99.90;;;;;;4970723;28;20206;-68
2021/01/11 00:24:22;;;;;;;49.93;29.97;;;3.90;99.90;;;;;;4970459;28;20230;-67
2021/01/11 00:26:50;;;;;;;44.27;29.60;;;3.90;99.90;;;;;;4971191;28;20213;-68
2021/01/11 00:29:18;;;;;;;45.53;29.90;;;4.00;99.90;;;;;;4972704;28;20297;-64
2021/01/11 00:31:44;;;;;;;45.83;29.70;;;3.90;99.90;;;;;;4970851;28;20202;-66
2021/01/11 00:34:11;;;;;;;47.90;30.97;;;3.90;99.90;;;;;;4970731;28;20201;-67
2021/01/11 00:36:38;;;;;;;49.63;31.63;;;3.90;99.90;;;;;;4967642;28;20210;-67
2021/01/11 00:39:05;;;;;;;46.97;30.30;;;4.00;99.90;;;;;;4965711;28;20583;-65
2021/01/11 00:41:32;;;;;;;47.37;30.23;;;3.90;99.90;;;;;;4971967;28;20198;-65
2021/01/11 00:43:59;;;;;;;46.70;30.87;;;3.90;99.90;;;;;;4968824;28;20226;-67
2021/01/11 00:46:28;;;;;;;48.37;30.03;;;3.90;99.90;;;;;;4967230;28;20233;-67
2021/01/11 00:48:55;;;;;;;48.00;30.73;;;3.90;99.90;;;;;;4968270;28;20206;-67
2021/01/11 00:51:22;;;;;;;49.63;31.30;;;3.90;99.90;;;;;;4973756;28;20240;-68
2021/01/11 00:53:49;;;;;;;46.87;31.07;;;4.00;99.90;;;;;;4969287;28;20214;-67
2021/01/11 00:56:16;;;;;;;46.93;29.97;;;4.00;99.90;;;;;;4972586;28;20314;-67
2021/01/11 00:58:44;;;;;;;49.87;30.67;;;4.00;99.90;;;;;;4975197;28;20209;-66
2021/01/11 01:01:11;;;;;;;49.80;31.30;;;4.00;99.90;;;;;;4976342;28;20241;-68
2021/01/11 01:03:39;;;;;;;46.33;31.00;;;4.00;99.90;;;;;;4971356;28;20276;-65
2021/01/11 01:06:08;;;;;;;46.73;31.43;;;4.00;99.90;;;;;;4971153;28;20209;-66
2021/01/11 01:08:35;;;;;;;48.20;28.97;;;4.00;99.90;;;;;;4969821;28;20614;-68
2021/01/11 01:11:01;;;;;;;48.20;30.40;;;4.00;99.90;;;;;;4970148;28;20232;-68
2021/01/11 01:13:28;;;;;;;45.67;29.00;;;3.90;99.90;;;;;;4975576;28;20209;-67
2021/01/11 01:15:54;;;;;;;47.23;31.10;;;4.00;99.90;;;;;;4973490;28;20201;-65
2021/01/11 01:18:21;;;;;;;46.73;30.73;;;3.90;99.90;;;;;;4971355;28;20198;-67
2021/01/11 01:20:48;;;;;;;47.67;30.90;;;3.90;99.90;;;;;;4974710;28;20244;-66
2021/01/11 01:23:15;;;;;;;48.03;31.63;;;3.90;99.90;;;;;;4975420;28;20210;-67
2021/01/11 01:25:42;;;;;;;50.13;32.07;;;3.90;99.90;;;;;;4981708;28;20194;-64
2021/01/11 01:28:08;;;;;;;46.67;30.03;;;3.90;99.90;;;;;;4981738;28;21272;-68
2021/01/11 01:30:35;;;;;;;49.80;32.07;;;3.90;99.90;;;;;;4983736;28;20198;-65
2021/01/11 01:33:02;;;;;;;52.27;32.20;;;3.90;99.90;;;;;;4967765;28;20256;-68
2021/01/11 01:35:29;;;;;;;52.33;33.80;;;3.90;99.90;;;;;;4974003;28;20202;-67
2021/01/11 01:37:57;;;;;;;48.30;33.07;;;3.90;99.90;;;;;;4974282;28;20283;-65
2021/01/11 01:40:24;;;;;;;53.50;33.90;;;3.90;99.90;;;;;;4972809;28;20268;-67
2021/01/11 01:42:51;;;;;;;55.97;33.93;;;4.00;99.90;;;;;;4976193;28;20206;-68
2021/01/11 01:45:18;;;;;;;55.97;34.60;;;4.00;99.90;;;;;;4974864;28;20255;-67
2021/01/11 01:47:46;;;;;;;54.30;33.70;;;3.90;99.90;;;;;;4971475;28;21251;-68
2021/01/11 01:50:13;;;;;;;54.70;32.80;;;3.90;99.90;;;;;;4973273;28;20296;-67
2021/01/11 01:52:42;;;;;;;57.47;34.27;;;3.90;99.90;;;;;;4974804;28;20963;-65
2021/01/11 01:55:12;;;;;;;55.97;35.23;;;3.90;99.90;;;;;;4970851;28;20208;-67
2021/01/11 01:57:40;;;;;;;57.60;35.73;;;3.90;99.90;;;;;;4969654;28;20312;-67
2021/01/11 02:00:10;;;;;;;60.07;36.57;;;3.90;99.90;;;;;;4970859;28;20603;-66
2021/01/11 02:02:37;;;;;;;60.67;36.83;;;3.90;99.90;;;;;;4971342;28;20208;-67
2021/01/11 02:05:04;;;;;;;53.93;33.87;;;3.90;99.90;;;;;;4971394;28;20232;-68
2021/01/11 02:07:35;;;;;;;54.63;33.87;;;3.90;99.90;;;;;;4971001;28;20198;-64
2021/01/11 02:10:18;;;;;;;56.33;34.77;;;3.90;99.90;;;;;;4979624;28;20532;-64
2021/01/11 02:13:00;;;;;;;57.77;35.80;;;3.90;99.90;;;;;;4979333;28;20245;-67
2021/01/11 02:15:34;;;;;;;53.37;32.23;;;3.90;99.90;;;;;;4972150;28;20558;-66
2021/01/11 02:18:13;;;;;;;50.90;33.00;;;3.90;99.90;;;;;;4971896;28;20197;-64
2021/01/11 02:21:17;;;;;;;53.17;33.07;;;3.90;99.90;;;;;;4972063;28;20206;-64
2021/01/11 02:24:11;;;;;;;52.00;33.80;;;3.90;99.90;;;;;;4972315;28;20232;-67
2021/01/11 02:26:57;;;;;;;54.67;34.63;;;4.00;99.90;;;;;;4970029;28;20209;-67
2021/01/11 02:29:40;;;;;;;51.60;32.50;;;3.90;99.90;;;;;;4975748;28;20622;-67
2021/01/11 02:32:08;;;;;;;55.03;34.30;;;4.00;99.90;;;;;;4971764;28;20201;-66
2021/01/11 02:34:37;;;;;;;51.83;33.73;;;4.00;99.90;;;;;;4971924;28;20210;-66
2021/01/11 02:37:06;;;;;;;51.13;33.30;;;4.00;99.90;;;;;;4971646;28;20205;-67
2021/01/11 02:39:32;;;;;;;52.93;33.37;;;4.00;99.90;;;;;;4973686;28;20229;-68
2021/01/11 02:41:59;;;;;;;54.77;35.80;;;4.00;99.90;;;;;;4971860;28;20892;-67
2021/01/11 02:44:25;;;;;;;54.80;34.53;;;4.00;99.90;;;;;;4977669;28;20714;-67
2021/01/11 02:46:52;;;;;;;52.07;33.70;;;4.00;99.90;;;;;;4979538;28;20208;-66
2021/01/11 02:49:26;;;;;;;50.23;33.63;;;4.00;99.90;;;;;;4981546;28;20203;-67
2021/01/11 02:52:02;;;;;;;53.00;33.47;;;4.00;99.90;;;;;;4978113;28;20233;-67
2021/01/11 02:54:34;;;;;;;53.23;32.80;;;4.00;99.90;;;;;;4978276;28;20202;-67
2021/01/11 02:57:08;;;;;;;54.87;33.90;;;4.00;99.90;;;;;;4979749;28;20206;-66
2021/01/11 02:59:40;;;;;;;49.83;33.40;;;4.00;99.90;;;;;;4979120;28;22234;-66
2021/01/11 03:02:08;;;;;;;49.67;32.37;;;4.00;99.90;;;;;;4979516;28;20205;-67
2021/01/11 03:04:36;;;;;;;50.13;31.10;;;4.00;99.90;;;;;;4979302;28;20241;-66
2021/01/11 03:07:04;;;;;;;50.10;33.33;;;4.00;99.90;;;;;;4979739;28;20244;-66
2021/01/11 03:09:31;;;;;;;46.97;31.33;;;4.00;99.90;;;;;;4977634;28;20668;-66
2021/01/11 03:11:59;;;;;;;43.13;29.47;;;4.00;99.90;;;;;;4979157;28;20198;-66
2021/01/11 03:14:26;;;;;;;42.40;29.40;;;4.00;99.90;;;;;;4978288;28;20663;-66
2021/01/11 03:16:53;;;;;;;38.93;26.40;;;4.00;99.90;;;;;;4977843;28;20201;-67
2021/01/11 03:19:20;;;;;;;39.30;25.63;;;4.00;99.90;;;;;;4979666;28;20226;-68
2021/01/11 03:21:47;;;;;;;35.10;24.77;;;4.00;99.90;;;;;;4982035;28;20202;-68
2021/01/11 03:24:15;;;;;;;36.30;23.97;;;4.10;99.90;;;;;;4979114;28;20249;-65
2021/01/11 03:26:41;;;;;;;36.40;24.60;;;4.00;99.90;;;;;;4978807;28;20637;-66
2021/01/11 03:29:08;;;;;;;35.30;24.30;;;4.10;99.90;;;;;;4978733;28;20741;-67
2021/01/11 03:31:35;;;;;;;32.53;23.07;;;4.00;99.90;;;;;;4979942;28;20193;-64
2021/01/11 03:34:01;;;;;;;31.87;22.37;;;4.00;99.90;;;;;;4979067;28;20758;-66
2021/01/11 03:36:29;;;;;;;35.77;23.87;;;4.10;99.90;;;;;;4979020;28;20206;-66
2021/01/11 03:38:57;;;;;;;33.63;23.53;;;4.10;99.90;;;;;;4979417;28;20209;-67
2021/01/11 03:41:24;;;;;;;36.20;23.40;;;4.10;99.90;;;;;;4978593;28;20326;-66
2021/01/11 03:43:50;;;;;;;33.03;23.63;;;4.10;99.90;;;;;;4978068;28;20229;-67
2021/01/11 03:46:18;;;;;;;36.17;23.77;;;4.10;99.90;;;;;;4980289;28;20221;-67
2021/01/11 03:48:45;;;;;;;32.43;21.33;;;4.10;99.90;;;;;;4982046;28;20214;-68
2021/01/11 03:51:13;;;;;;;30.97;21.90;;;4.10;99.90;;;;;;4975873;28;20244;-68
2021/01/11 03:53:40;;;;;;;28.37;20.67;;;4.10;99.90;;;;;;4970506;28;20586;-68
2021/01/11 03:56:08;;;;;;;26.80;19.73;;;4.10;99.90;;;;;;4969895;28;20205;-65
2021/01/11 03:58:35;;;;;;;26.40;19.53;;;4.10;99.90;;;;;;4971077;28;20252;-67
2021/01/11 04:01:03;;;;;;;25.03;18.93;;;4.10;99.90;;;;;;4971018;28;20205;-66
2021/01/11 04:03:30;;;;;;;25.13;19.00;;;4.10;99.90;;;;;;4968877;28;20206;-66
2021/01/11 04:05:57;;;;;;;22.97;18.33;;;4.10;99.90;;;;;;4974870;28;20202;-67
2021/01/11 04:08:24;;;;;;;23.17;17.70;;;4.10;99.90;;;;;;4978131;28;20209;-66
2021/01/11 04:10:51;;;;;;;25.53;17.90;;;4.20;99.90;;;;;;4977781;28;20240;-67
2021/01/11 04:13:19;;;;;;;23.93;18.87;;;4.20;99.90;;;;;;4978922;28;20197;-67
2021/01/11 04:15:46;;;;;;;23.33;19.00;;;4.20;99.90;;;;;;4978172;28;20205;-67
2021/01/11 04:18:13;;;;;;;24.43;17.87;;;4.20;99.90;;;;;;4977774;28;20655;-66
2021/01/11 04:20:39;;;;;;;21.60;16.80;;;4.20;99.90;;;;;;4978721;28;22737;-65
2021/01/11 04:23:06;;;;;;;20.93;15.53;;;4.20;99.90;;;;;;4976836;28;20213;-67
2021/01/11 04:25:33;;;;;;;18.00;14.17;;;4.20;99.90;;;;;;4978852;28;20284;-68
2021/01/11 04:28:03;;;;;;;15.57;13.63;;;4.20;99.90;;;;;;4976360;28;20212;-68
2021/01/11 04:30:31;;;;;;;15.47;12.43;;;4.20;99.90;;;;;;4977466;28;20567;-66
2021/01/11 04:32:58;;;;;;;15.13;12.37;;;4.30;99.90;;;;;;4984711;28;20662;-68
2021/01/11 04:35:27;;;;;;;16.90;12.37;;;4.30;99.90;;;;;;4984098;28;20733;-68
2021/01/11 04:37:54;;;;;;;16.27;13.17;;;4.30;99.90;;;;;;4982535;28;21118;-68
2021/01/11 04:40:21;;;;;;;17.53;12.50;;;4.30;99.90;;;;;;4984173;28;20267;-66
2021/01/11 04:42:56;;;;;;;18.00;12.70;;;4.30;99.90;;;;;;4980944;28;20268;-66
2021/01/11 04:45:24;;;;;;;16.03;12.90;;;4.30;99.90;;;;;;4982701;28;20299;-66
2021/01/11 04:47:55;;;;;;;18.40;12.43;;;4.30;99.90;;;;;;4987759;28;20206;-68
2021/01/11 04:50:22;;;;;;;16.27;12.03;;;4.30;99.90;;;;;;4983976;28;20338;-67
2021/01/11 04:52:49;;;;;;;16.60;12.73;;;4.30;99.90;;;;;;4983372;28;20201;-67
2021/01/11 04:55:16;;;;;;;17.37;13.27;;;4.30;99.90;;;;;;4981737;28;20655;-65
2021/01/11 04:57:53;;;;;;;19.27;13.73;;;4.30;99.90;;;;;;4983578;28;20209;-66
2021/01/11 05:00:23;;;;;;;18.50;14.27;;;4.30;99.90;;;;;;4978699;28;20205;-65
2021/01/11 05:02:59;;;;;;;18.83;14.50;;;4.30;99.90;;;;;;4975780;28;20212;-66
2021/01/11 05:05:27;;;;;;;20.80;15.33;;;4.30;99.90;;;;;;4977241;28;20328;-67
2021/01/11 05:07:53;;;;;;;20.23;16.07;;;4.30;99.90;;;;;;4972524;28;20206;-66
2021/01/11 05:10:25;;;;;;;22.60;16.47;;;4.30;99.90;;;;;;4972988;28;20217;-67
2021/01/11 05:12:56;;;;;;;20.00;16.40;;;4.30;99.90;;;;;;4975567;28;20204;-66
2021/01/11 05:15:24;;;;;;;19.93;15.73;;;4.30;99.90;;;;;;4975638;28;20255;-68
2021/01/11 05:17:51;;;;;;;20.13;16.00;;;4.30;99.90;;;;;;4978266;28;20205;-66
2021/01/11 05:20:23;;;;;;;20.03;15.30;;;4.30;99.90;;;;;;4975411;28;20689;-67
2021/01/11 05:22:50;;;;;;;19.67;15.80;;;4.30;99.90;;;;;;4974035;28;20755;-66
2021/01/11 05:25:18;;;;;;;18.40;14.60;;;4.30;99.90;;;;;;4975053;28;20225;-68
2021/01/11 05:27:47;;;;;;;17.83;13.67;;;4.30;99.90;;;;;;4977411;28;20256;-65
2021/01/11 05:30:30;;;;;;;18.07;14.80;;;4.30;99.90;;;;;;4976931;28;20198;-68
2021/01/11 05:32:56;;;;;;;20.23;15.23;;;4.30;99.90;;;;;;4974985;28;22604;-66
2021/01/11 05:35:25;;;;;;;18.80;14.20;;;4.30;99.90;;;;;;4973900;28;20571;-66
2021/01/11 05:37:54;;;;;;;19.47;15.33;;;4.30;99.90;;;;;;4977351;28;20197;-66
2021/01/11 05:40:21;;;;;;;20.30;14.27;;;4.30;99.90;;;;;;4974749;28;20311;-68
2021/01/11 05:42:52;;;;;;;18.77;14.27;;;4.30;99.90;;;;;;4972190;28;20202;-68
2021/01/11 05:45:22;;;;;;;20.07;14.53;;;4.30;99.90;;;;;;4975450;28;20312;-67
2021/01/11 05:48:09;;;;;;;18.47;13.63;;;4.30;99.90;;;;;;4972602;28;20201;-67
2021/01/11 05:50:38;;;;;;;20.27;14.80;;;4.30;99.90;;;;;;4970050;28;20202;-67
2021/01/11 05:53:05;;;;;;;20.57;14.73;;;4.30;99.90;;;;;;4973295;28;20202;-66
2021/01/11 05:55:33;;;;;;;18.83;12.93;;;4.30;99.90;;;;;;4971206;28;20205;-67
2021/01/11 05:58:01;;;;;;;18.67;13.50;;;4.30;99.90;;;;;;4971367;28;20205;-66
2021/01/11 06:00:31;;;;;;;17.13;13.43;;;4.30;99.90;;;;;;4973109;28;20212;-65
2021/01/11 06:02:58;;;;;;;16.00;13.27;;;4.30;99.90;;;;;;4973164;28;20213;-67
2021/01/11 06:05:26;;;;;;;16.17;13.07;;;4.30;99.90;;;;;;4972062;28;20276;-66
2021/01/11 06:07:54;;;;;;;15.37;12.63;;;4.30;99.90;;;;;;4968601;28;20217;-67
2021/01/11 06:10:22;;;;;;;17.73;12.57;;;4.30;99.90;;;;;;4972078;28;20202;-67
2021/01/11 06:12:49;;;;;;;15.47;12.07;;;4.30;99.90;;;;;;4971063;28;20210;-68
2021/01/11 06:15:17;;;;;;;17.43;12.17;;;4.30;99.90;;;;;;4971060;28;20228;-67
2021/01/11 06:17:45;;;;;;;15.27;11.80;;;4.30;99.90;;;;;;4971173;28;20221;-68
2021/01/11 06:20:15;;;;;;;15.63;12.03;;;4.30;99.90;;;;;;4971886;28;20194;-67
2021/01/11 06:23:24;;;;;;;17.40;12.57;;;4.30;99.90;;;;;;4970462;28;20209;-67
2021/01/11 06:25:50;;;;;;;15.10;12.23;;;4.20;99.90;;;;;;4968766;28;20249;-67
2021/01/11 06:28:30;;;;;;;15.50;12.03;;;4.20;99.90;;;;;;4972005;28;20214;-68
2021/01/11 06:31:10;;;;;;;16.17;12.43;;;4.20;99.90;;;;;;4969349;28;20345;-67
2021/01/11 06:33:38;;;;;;;15.47;12.13;;;4.20;99.90;;;;;;4972249;28;20739;-66
2021/01/11 06:36:18;;;;;;;15.67;12.30;;;4.20;99.90;;;;;;4970681;28;20201;-67
2021/01/11 06:38:47;;;;;;;17.33;12.40;;;4.20;99.90;;;;;;4971052;28;20620;-68
2021/01/11 06:41:15;;;;;;;15.27;11.87;;;4.20;99.90;;;;;;4971601;28;20647;-68
2021/01/11 06:43:44;;;;;;;17.60;12.73;;;4.20;99.90;;;;;;4970908;28;20201;-67
2021/01/11 06:46:12;;;;;;;15.03;12.20;;;4.30;99.90;;;;;;4971905;28;20213;-67
2021/01/11 06:48:41;;;;;;;16.57;12.90;;;4.20;99.90;;;;;;4973259;28;20198;-67
2021/01/11 06:51:09;;;;;;;18.97;12.73;;;4.20;99.90;;;;;;4971314;28;20243;-68
2021/01/11 06:53:36;;;;;;;16.73;11.80;;;4.20;99.90;;;;;;4971924;28;20221;-66
2021/01/11 06:56:08;;;;;;;16.23;12.57;;;4.20;99.90;;;;;;4970434;28;20211;-68
2021/01/11 06:58:37;;;;;;;15.57;11.93;;;4.30;99.90;;;;;;4970765;28;20225;-68
2021/01/11 07:01:06;;;;;;;16.30;12.67;;;4.30;99.90;;;;;;4970296;28;20206;-68
2021/01/11 07:03:43;;;;;;;14.90;12.17;;;4.30;99.90;;;;;;4970423;28;20288;-67
2021/01/11 07:06:32;;;;;;;15.77;11.80;;;4.30;99.90;;;;;;4973284;28;20216;-67
2021/01/11 07:09:13;;;;;;;15.97;12.37;;;4.30;99.90;;;;;;4972066;28;20201;-68
2021/01/11 07:11:42;;;;;;;14.93;11.83;;;4.30;99.90;;;;;;4970714;28;20222;-67
2021/01/11 07:14:10;;;;;;;18.60;12.07;;;4.30;99.90;;;;;;4971889;28;20202;-66
2021/01/11 07:16:49;;;;;;;15.97;11.07;;;4.30;99.90;;;;;;4969526;28;20213;-68
2021/01/11 07:19:21;;;;;;;16.20;11.67;;;4.30;99.90;;;;;;4970723;28;20738;-67
2021/01/11 07:21:48;;;;;;;17.07;12.77;;;4.30;99.90;;;;;;4971084;28;20235;-68
2021/01/11 07:24:15;;;;;;;15.47;11.93;;;4.30;99.90;;;;;;4969700;28;20229;-68
2021/01/11 07:26:43;;;;;;;16.20;12.00;;;4.40;99.90;;;;;;4968151;28;20686;-68
2021/01/11 07:29:11;;;;;;;15.23;11.57;;;4.30;99.90;;;;;;4967028;28;20730;-68
2021/01/11 07:31:39;;;;;;;16.20;12.57;;;4.30;99.90;;;;;;4970711;28;20209;-68
2021/01/11 07:34:07;;;;;;;14.87;11.37;;;4.40;99.90;;;;;;4968985;28;20210;-67
2021/01/11 07:36:39;;;;;;;14.90;11.50;;;4.40;99.90;;;;;;4967942;28;20545;-67
2021/01/11 07:39:17;;;;;;;14.67;11.20;;;4.40;99.90;;;;;;4968205;28;20202;-68
2021/01/11 07:41:47;;;;;;;14.67;11.43;;;4.40;99.90;;;;;;4974718;28;20193;-68
2021/01/11 07:44:21;;;;;;;15.27;10.77;;;4.40;99.90;;;;;;4981288;28;20280;-67
2021/01/11 07:46:59;;;;;;;16.13;11.70;;;4.40;99.90;;;;;;4980344;28;20271;-68
2021/01/11 07:49:27;;;;;;;15.30;12.03;;;4.40;99.90;;;;;;4978719;28;20202;-68
2021/01/11 07:52:00;;;;;;;15.00;11.67;;;4.50;99.90;;;;;;4977050;28;20280;-67
2021/01/11 07:54:27;;;;;;;17.03;11.97;;;4.40;99.90;;;;;;4976987;28;20198;-66
2021/01/11 07:56:54;;;;;;;15.17;12.07;;;4.50;99.90;;;;;;4977849;28;20659;-67
2021/01/11 07:59:21;;;;;;;14.33;12.10;;;4.40;99.90;;;;;;4977317;28;20201;-66
2021/01/11 08:01:49;;;;;;;14.40;11.53;;;4.50;99.90;;;;;;4977934;28;20206;-67
2021/01/11 08:04:16;;;;;;;15.43;11.93;;;4.40;99.90;;;;;;4972598;28;20225;-67
2021/01/11 08:06:50;;;;;;;15.03;11.83;;;4.50;99.90;;;;;;4973727;28;20209;-68
2021/01/11 08:09:18;;;;;;;15.10;11.73;;;4.50;99.90;;;;;;4968796;28;20213;-66
2021/01/11 08:11:46;;;;;;;14.27;11.80;;;4.50;99.90;;;;;;4969538;28;20220;-68
2021/01/11 08:14:14;;;;;;;15.03;11.77;;;4.60;99.90;;;;;;4967978;28;20213;-66
2021/01/11 08:16:44;;;;;;;15.33;12.17;;;4.50;99.90;;;;;;4968123;28;20202;-67
2021/01/11 08:19:11;;;;;;;14.90;12.03;;;4.50;99.90;;;;;;4969628;28;20217;-65
2021/01/11 08:21:38;;;;;;;15.47;11.90;;;4.60;99.90;;;;;;4985366;28;20197;-66
2021/01/11 08:24:07;;;;;;;15.63;11.83;;;4.60;99.90;;;;;;4976869;28;20225;-67
2021/01/11 08:26:39;;;;;;;14.43;11.83;;;4.60;99.90;;;;;;4978660;28;20253;-67
2021/01/11 08:29:07;;;;;;;15.73;11.83;;;4.60;99.90;;;;;;4976744;28;20259;-65
2021/01/11 08:31:37;;;;;;;15.37;11.37;;;4.70;99.90;;;;;;4976081;28;20213;-66
2021/01/11 08:34:05;;;;;;;16.67;12.27;;;4.70;99.90;;;;;;4977392;28;20198;-66
2021/01/11 08:36:32;;;;;;;17.50;12.83;;;4.70;99.90;;;;;;4979487;28;20624;-66
2021/01/11 08:39:07;;;;;;;15.07;11.47;;;4.70;99.90;;;;;;4976499;28;20237;-67
2021/01/11 08:41:36;;;;;;;14.07;11.60;;;4.70;99.90;;;;;;4978302;28;20216;-67
2021/01/11 08:44:03;;;;;;;15.70;11.93;;;4.70;99.90;;;;;;4978963;28;20630;-65
2021/01/11 08:46:58;;;;;;;14.27;10.83;;;4.80;99.90;;;;;;4977774;28;20257;-67
2021/01/11 08:49:25;;;;;;;14.30;10.90;;;4.80;99.90;;;;;;4975666;28;20591;-65
2021/01/11 08:51:52;;;;;;;12.57;10.77;;;4.80;99.90;;;;;;4982107;28;20236;-66
2021/01/11 08:54:29;;;;;;;12.43;9.73;;;4.90;99.90;;;;;;4982784;28;20217;-64
2021/01/11 08:56:57;;;;;;;11.53;9.80;;;4.90;99.90;;;;;;4983655;28;20578;-66
2021/01/11 08:59:24;;;;;;;11.47;9.93;;;5.00;99.90;;;;;;4978866;28;20205;-63
2021/01/11 09:01:51;;;;;;;12.77;9.43;;;5.00;99.90;;;;;;4978910;28;20487;-65
2021/01/11 09:04:32;;;;;;;13.70;10.00;;;5.10;99.90;;;;;;4983383;28;20229;-63
2021/01/11 09:07:00;;;;;;;11.97;9.80;;;5.10;99.90;;;;;;4986023;28;20209;-65
2021/01/11 09:09:30;;;;;;;13.13;9.43;;;5.20;99.90;;;;;;4983910;28;20619;-67
2021/01/11 09:12:05;;;;;;;13.73;10.30;;;5.20;99.90;;;;;;4978971;28;20252;-68
2021/01/11 09:14:32;;;;;;;11.90;9.50;;;5.20;99.90;;;;;;4974698;28;20594;-71
2021/01/11 09:17:01;;;;;;;14.00;10.67;;;5.20;99.90;;;;;;4976797;28;20698;-66
2021/01/11 09:19:28;;;;;;;13.00;10.40;;;5.20;99.90;;;;;;4978082;28;21484;-66
2021/01/11 09:22:06;;;;;;;13.20;10.23;;;5.20;99.90;;;;;;4991500;28;20202;-64
2021/01/11 09:24:33;;;;;;;12.13;10.27;;;5.20;99.90;;;;;;4984373;28;20728;-66
2021/01/11 09:27:00;;;;;;;12.73;10.83;;;5.20;99.90;;;;;;4983605;28;20279;-65
2021/01/11 09:29:28;;;;;;;12.03;10.47;;;5.20;99.90;;;;;;4981100;28;20198;-65
2021/01/11 09:31:55;;;;;;;11.20;9.90;;;5.20;99.90;;;;;;4980143;28;20205;-66
2021/01/11 09:34:21;;;;;;;15.47;10.43;;;5.20;99.90;;;;;;4985500;28;20655;-65
2021/01/11 09:36:48;;;;;;;12.43;10.83;;;5.30;99.90;;;;;;4974652;28;20248;-65
2021/01/11 09:39:17;;;;;;;13.43;10.50;;;5.30;99.90;;;;;;4968019;28;20210;-65
2021/01/11 09:41:46;;;;;;;14.70;11.13;;;5.40;99.90;;;;;;4973478;28;20205;-65
2021/01/11 09:44:13;;;;;;;12.30;10.23;;;5.30;99.90;;;;;;4968461;28;22191;-65
2021/01/11 09:46:49;;;;;;;13.93;11.00;;;5.40;99.90;;;;;;4973841;28;20216;-66
2021/01/11 09:49:16;;;;;;;15.60;11.73;;;5.40;99.90;;;;;;4966595;28;20261;-66
2021/01/11 09:51:43;;;;;;;12.87;10.17;;;5.50;99.90;;;;;;4970772;28;20230;-66
2021/01/11 09:54:09;;;;;;;15.30;11.30;;;5.50;99.90;;;;;;4971582;28;20206;-66
2021/01/11 09:56:37;;;;;;;13.63;10.30;;;5.50;99.90;;;;;;4975122;28;20221;-66
2021/01/11 09:59:05;;;;;;;14.80;11.27;;;5.50;99.90;;;;;;4970163;28;20198;-67
2021/01/11 10:01:41;;;;;;;15.67;11.30;;;5.50;99.90;;;;;;4975940;28;20200;-67
2021/01/11 10:04:09;;;;;;;13.57;11.07;;;5.40;99.90;;;;;;4976920;28;20201;-69
2021/01/11 10:06:40;;;;;;;15.50;12.30;;;5.40;99.90;;;;;;4968052;28;20300;-66
2021/01/11 10:09:07;;;;;;;14.70;12.07;;;5.40;99.90;;;;;;4969162;28;20264;-67
2021/01/11 10:11:33;;;;;;;14.07;11.73;;;5.40;99.90;;;;;;4972884;28;20206;-66
2021/01/11 10:14:01;;;;;;;17.13;11.80;;;5.40;99.90;;;;;;4970043;28;20209;-65
2021/01/11 10:16:27;;;;;;;15.43;11.90;;;5.40;99.90;;;;;;4971534;28;20209;-67
2021/01/11 10:18:54;;;;;;;13.23;11.77;;;5.40;99.90;;;;;;4968814;28;20206;-67
2021/01/11 10:21:21;;;;;;;14.77;11.67;;;5.50;99.90;;;;;;4971422;28;20641;-68
2021/01/11 10:23:47;;;;;;;13.90;11.60;;;5.50;99.90;;;;;;4972840;28;22152;-67
2021/01/11 10:26:19;;;;;;;14.20;11.97;;;5.60;99.90;;;;;;4970981;28;20241;-66
2021/01/11 10:28:45;;;;;;;15.43;12.30;;;5.70;99.90;;;;;;4968946;28;20268;-68
2021/01/11 10:31:13;;;;;;;13.63;12.17;;;5.70;99.90;;;;;;4973867;28;20221;-66
2021/01/11 10:33:39;;;;;;;13.50;11.70;;;5.70;99.90;;;;;;4970380;28;20213;-67
2021/01/11 10:36:06;;;;;;;15.63;11.97;;;5.70;99.90;;;;;;4971281;28;20214;-68
2021/01/11 10:38:33;;;;;;;14.77;12.17;;;5.60;99.90;;;;;;4978965;28;20201;-67
2021/01/11 10:40:59;;;;;;;15.20;12.20;;;5.60;99.90;;;;;;4978822;28;20725;-69
2021/01/11 10:43:27;;;;;;;14.80;12.10;;;5.60;99.90;;;;;;4977130;28;20256;-68
2021/01/11 10:45:54;;;;;;;14.13;12.03;;;5.50;99.90;;;;;;4972484;28;20240;-68
2021/01/11 10:48:21;;;;;;;17.27;13.60;;;5.50;99.90;;;;;;4976421;28;20202;-70
2021/01/11 10:50:48;;;;;;;17.80;13.27;;;5.50;99.90;;;;;;4977874;28;20272;-69
2021/01/11 10:53:15;;;;;;;14.77;12.37;;;5.50;99.90;;;;;;4979932;28;20216;-67
2021/01/11 10:55:42;;;;;;;17.07;12.03;;;5.50;99.90;;;;;;4972070;28;20206;-67
2021/01/11 10:58:08;;;;;;;15.27;12.17;;;5.40;99.90;;;;;;4967569;28;20210;-68
2021/01/11 11:00:35;;;;;;;16.03;12.93;;;5.40;99.90;;;;;;4971165;28;20220;-64
2021/01/11 11:03:02;;;;;;;17.53;13.07;;;5.40;99.90;;;;;;4970216;28;20659;-68
2021/01/11 11:05:30;;;;;;;13.93;11.67;;;5.40;99.90;;;;;;4971841;28;20233;-70
2021/01/11 11:07:56;;;;;;;14.90;12.03;;;5.40;99.90;;;;;;4970551;28;20216;-68
2021/01/11 11:10:24;;;;;;;13.90;11.83;;;5.40;99.90;;;;;;4968288;28;20257;-67
2021/01/11 11:12:51;;;;;;;14.30;12.20;;;5.50;99.90;;;;;;4970357;28;21027;-67
2021/01/11 11:15:18;;;;;;;15.80;12.47;;;5.50;99.90;;;;;;4970227;28;20209;-66
2021/01/11 11:17:45;;;;;;;15.87;12.03;;;5.70;99.90;;;;;;4971243;28;20202;-67
2021/01/11 11:20:13;;;;;;;20.70;13.30;;;5.80;99.90;;;;;;4969983;28;20268;-67
2021/01/11 11:22:40;;;;;;;15.17;12.13;;;5.90;99.90;;;;;;4970530;28;20609;-67
2021/01/11 11:25:08;;;;;;;16.73;12.47;;;6.00;99.90;;;;;;4970257;28;20236;-70
2021/01/11 11:27:36;;;;;;;17.20;12.03;;;6.00;99.90;;;;;;4971510;28;20213;-64
2021/01/11 11:30:04;;;;;;;14.17;11.90;;;6.10;99.90;;;;;;4970002;28;20209;-75
2021/01/11 11:32:30;;;;;;;15.87;11.03;;;6.10;99.90;;;;;;4969618;28;20663;-67
2021/01/11 11:34:57;;;;;;;14.37;11.80;;;6.10;99.90;;;;;;4975056;28;20209;-68
2021/01/11 11:37:24;;;;;;;17.23;12.17;;;6.10;99.90;;;;;;4971012;28;20732;-68
2021/01/11 11:39:52;;;;;;;16.73;11.33;;;6.10;99.90;;;;;;4969550;28;20206;-67
2021/01/11 11:42:18;;;;;;;14.27;11.30;;;6.10;99.90;;;;;;4970784;28;20214;-67
2021/01/11 11:44:45;;;;;;;17.10;12.90;;;6.10;99.90;;;;;;4968637;28;20230;-67
2021/01/11 11:47:11;;;;;;;14.13;11.73;;;6.00;99.90;;;;;;4972807;28;20690;-68
2021/01/11 11:49:38;;;;;;;15.93;12.00;;;6.00;99.90;;;;;;4969288;28;20221;-68
2021/01/11 11:52:05;;;;;;;15.20;12.27;;;6.00;99.90;;;;;;4969340;28;20244;-70
2021/01/11 11:54:32;;;;;;;15.30;12.07;;;5.90;99.90;;;;;;4971248;28;20210;-71
2021/01/11 11:56:59;;;;;;;15.40;12.97;;;5.90;99.90;;;;;;4972003;28;20372;-67
2021/01/11 11:59:27;;;;;;;14.77;12.40;;;5.90;99.90;;;;;;4969786;28;20217;-72
2021/01/11 12:01:53;;;;;;;15.00;12.67;;;5.90;99.90;;;;;;4969896;28;20214;-67
2021/01/11 12:04:20;;;;;;;15.03;12.30;;;6.00;99.90;;;;;;4969388;28;20213;-66
2021/01/11 12:06:46;;;;;;;14.47;11.97;;;6.00;99.90;;;;;;4968922;28;20209;-68
2021/01/11 12:09:13;;;;;;;14.20;12.13;;;6.10;99.90;;;;;;4967799;28;20663;-67
2021/01/11 12:11:44;;;;;;;16.23;12.63;;;6.20;99.90;;;;;;4969001;28;20220;-67
2021/01/11 12:14:12;;;;;;;12.73;11.17;;;6.30;99.90;;;;;;4970886;28;20307;-67
2021/01/11 12:16:39;;;;;;;15.17;11.77;;;6.50;99.90;;;;;;4971502;28;20746;-69
2021/01/11 12:19:05;;;;;;;15.63;11.40;;;6.60;99.90;;;;;;4975847;28;20675;-70
2021/01/11 12:21:33;;;;;;;13.73;11.33;;;6.70;99.90;;;;;;4968610;28;20217;-65
2021/01/11 12:24:00;;;;;;;15.87;11.23;;;6.70;99.90;;;;;;4967219;28;20217;-69
2021/01/11 12:26:27;;;;;;;13.00;11.67;;;6.70;99.90;;;;;;4969189;28;20234;-69
2021/01/11 12:28:54;;;;;;;12.83;11.13;;;6.60;99.90;;;;;;4969159;28;20205;-69
2021/01/11 12:31:28;;;;;;;12.13;10.80;;;6.60;99.90;;;;;;4967940;28;20217;-69
2021/01/11 12:33:55;;;;;;;15.53;11.50;;;6.60;99.90;;;;;;4970938;28;20208;-69
2021/01/11 12:36:23;;;;;;;14.90;11.47;;;6.70;99.90;;;;;;4965185;28;20210;-68
2021/01/11 12:38:50;;;;;;;16.30;12.53;;;6.70;99.90;;;;;;4971238;28;20206;-67
2021/01/11 12:41:18;;;;;;;13.87;10.70;;;6.70;99.90;;;;;;4978866;28;20325;-68
2021/01/11 12:43:45;;;;;;;14.53;11.57;;;6.70;99.90;;;;;;4979950;28;20678;-67
2021/01/11 12:46:12;;;;;;;14.90;11.00;;;6.80;99.90;;;;;;4976969;28;20234;-67
2021/01/11 12:48:40;;;;;;;14.50;10.33;;;6.80;99.90;;;;;;4976326;28;20239;-68